Time;durP1;ratioP1;P1;durP2;ratioP2;P2;SDS_P1;SDS_P2;PMS_P1;PMS_P2;Temp;Humidity;BMP_temperature;BMP_pressure;BME280_temperature;BME280_humidity;BME280_pressure;Samples;Min_cycle;Max_cycle;Signal;HPM_P1;HPM_P2
2023/10/03 00:00:48;;;;;;;9.80;6.10;;;;;;;15.70;84.38;100538.90;131340;1251;108698;-78
2023/10/03 00:04:13;;;;;;;10.50;6.30;;;;;;;15.71;84.36;100532.91;131244;1253;110142;-78
2023/10/03 00:07:19;;;;;;;9.30;5.70;;;;;;;15.69;84.40;100532.17;131098;1251;106771;-77
2023/10/03 00:10:25;;;;;;;9.70;5.80;;;;;;;15.68;84.45;100533.64;131084;1250;109386;-78
2023/10/03 00:13:31;;;;;;;7.90;5.30;;;;;;;15.67;84.72;100528.89;131125;1253;107924;-78
2023/10/03 00:16:37;;;;;;;10.30;6.10;;;;;;;15.68;84.73;100529.43;131080;1253;106557;-78
2023/10/03 00:19:43;;;;;;;9.80;5.90;;;;;;;15.68;84.60;100529.64;131136;1253;106458;-78
2023/10/03 00:22:48;;;;;;;9.60;6.30;;;;;;;15.68;84.73;100531.59;131126;1253;108376;-78
2023/10/03 00:25:54;;;;;;;10.20;5.80;;;;;;;15.66;84.60;100525.20;131053;1249;107796;-79
2023/10/03 00:29:00;;;;;;;10.90;5.70;;;;;;;15.64;84.82;100526.02;131085;1250;108605;-78
2023/10/03 00:32:06;;;;;;;9.90;5.80;;;;;;;15.64;84.81;100523.38;131038;1253;106680;-77
2023/10/03 00:35:12;;;;;;;8.30;6.00;;;;;;;15.63;84.87;100524.70;131124;1253;108460;-78
2023/10/03 00:38:17;;;;;;;8.70;5.50;;;;;;;15.63;84.91;100520.55;131070;1254;107469;-78
2023/10/03 00:41:23;;;;;;;9.10;6.20;;;;;;;15.61;84.84;100517.21;131309;1250;108464;-78
2023/10/03 00:44:29;;;;;;;8.70;5.60;;;;;;;15.58;84.92;100518.11;131303;1250;106602;-78
2023/10/03 00:47:36;;;;;;;7.80;5.40;;;;;;;15.55;85.13;100515.77;131165;1253;108224;-78
2023/10/03 00:50:44;;;;;;;8.90;5.70;;;;;;;15.53;85.06;100512.02;130986;1251;170418;-78
2023/10/03 00:53:55;;;;;;;8.80;5.50;;;;;;;15.52;85.30;100508.02;131111;1253;107566;-78
2023/10/03 00:57:02;;;;;;;9.60;5.80;;;;;;;15.53;85.32;100506.85;131137;1256;108758;-78
2023/10/03 01:00:15;;;;;;;8.90;6.10;;;;;;;15.51;85.12;100500.94;131035;1256;107678;-78
2023/10/03 01:03:32;;;;;;;10.30;6.20;;;;;;;15.48;85.43;100500.22;131053;1250;107695;-78
2023/10/03 01:06:38;;;;;;;10.70;6.10;;;;;;;15.45;85.41;100499.16;131178;1253;106861;-78
2023/10/03 01:09:47;;;;;;;9.30;5.90;;;;;;;15.45;85.53;100496.19;131102;1251;108667;-77
2023/10/03 01:12:54;;;;;;;8.90;5.90;;;;;;;15.47;85.66;100497.20;131130;1253;108601;-78
2023/10/03 01:16:03;;;;;;;11.60;6.40;;;;;;;15.48;85.65;100494.30;131307;1251;108633;-79
2023/10/03 01:19:13;;;;;;;9.20;6.10;;;;;;;15.49;85.55;100490.61;131252;1251;107319;-78
2023/10/03 01:22:19;;;;;;;8.70;5.70;;;;;;;15.48;85.72;100486.98;131113;1251;107761;-78
2023/10/03 01:25:27;;;;;;;9.20;5.50;;;;;;;15.46;85.70;100480.54;131068;1253;106738;-78
2023/10/03 01:28:35;;;;;;;9.90;6.40;;;;;;;15.47;85.75;100473.64;131146;1253;106889;-78
2023/10/03 01:31:41;;;;;;;9.30;5.90;;;;;;;15.47;85.78;100476.29;131047;1253;107721;-78
2023/10/03 01:34:47;;;;;;;9.40;6.30;;;;;;;15.49;85.71;100476.08;131188;1253;108592;-78
2023/10/03 01:37:53;;;;;;;9.80;6.60;;;;;;;15.49;85.77;100476.66;131016;1253;107532;-80
2023/10/03 01:41:00;;;;;;;8.70;6.40;;;;;;;15.47;85.87;100473.60;131217;1249;107600;-78
2023/10/03 01:44:06;;;;;;;9.50;5.70;;;;;;;15.44;85.83;100473.06;131312;1253;107690;-78
2023/10/03 01:47:15;;;;;;;9.30;5.70;;;;;;;15.43;86.00;100472.73;131168;1253;108534;-78
2023/10/03 01:50:22;;;;;;;10.60;6.40;;;;;;;15.42;86.03;100471.02;131135;1253;107735;-78
2023/10/03 01:53:29;;;;;;;9.80;6.30;;;;;;;15.42;85.87;100477.28;131205;1250;109333;-78
2023/10/03 01:56:35;;;;;;;8.50;6.00;;;;;;;15.42;86.00;100473.92;131114;1251;108692;-78
2023/10/03 01:59:41;;;;;;;10.10;6.00;;;;;;;15.38;86.04;100475.13;131054;1253;107853;-78
2023/10/03 02:02:47;;;;;;;10.50;6.10;;;;;;;15.34;86.09;100474.84;131259;1263;106780;-78
2023/10/03 02:05:53;;;;;;;9.80;5.80;;;;;;;15.31;85.99;100476.02;131228;1251;106339;-78
2023/10/03 02:09:02;;;;;;;10.40;6.40;;;;;;;15.30;86.14;100472.09;131192;1250;107709;-78
2023/10/03 02:12:10;;;;;;;10.20;6.50;;;;;;;15.27;86.10;100473.04;131121;1252;106576;-78
2023/10/03 02:15:20;;;;;;;9.80;6.30;;;;;;;15.27;86.25;100467.73;131177;1251;107722;-78
2023/10/03 02:18:26;;;;;;;9.80;5.90;;;;;;;15.24;86.20;100465.04;131172;1256;108696;-78
2023/10/03 02:21:32;;;;;;;12.80;6.20;;;;;;;15.21;86.13;100463.23;131128;1253;107350;-78
2023/10/03 02:24:37;;;;;;;10.50;6.30;;;;;;;15.18;86.08;100456.73;131053;1253;107043;-77
2023/10/03 02:27:43;;;;;;;9.30;6.20;;;;;;;15.17;86.25;100448.89;131809;1253;107458;-81
2023/10/03 02:30:53;;;;;;;8.90;6.30;;;;;;;15.15;86.19;100442.65;131436;1249;106502;-81
2023/10/03 02:33:58;;;;;;;10.90;6.70;;;;;;;15.13;86.05;100436.42;131466;1253;107655;-80
2023/10/03 02:37:04;;;;;;;11.30;6.60;;;;;;;15.09;86.24;100437.09;132101;1249;106794;-81
2023/10/03 02:40:12;;;;;;;10.00;6.20;;;;;;;15.05;86.31;100435.20;131467;1250;106614;-85
2023/10/03 02:43:18;;;;;;;9.20;7.10;;;;;;;15.02;86.24;100426.21;131872;1249;107490;-82
2023/10/03 02:46:26;;;;;;;11.50;7.20;;;;;;;15.01;86.25;100427.21;131412;1254;106318;-82
2023/10/03 02:49:32;;;;;;;11.80;7.10;;;;;;;15.00;86.27;100422.02;131399;1253;108566;-84
2023/10/03 02:52:39;;;;;;;13.00;7.30;;;;;;;14.98;86.45;100418.67;131303;1256;107822;-82
2023/10/03 02:55:46;;;;;;;9.90;6.20;;;;;;;14.94;86.44;100414.60;131238;1253;107926;-82
2023/10/03 02:58:52;;;;;;;9.80;6.90;;;;;;;14.91;86.36;100413.89;131290;1256;108720;-84
2023/10/03 03:01:59;;;;;;;9.10;5.80;;;;;;;14.87;86.40;100413.56;131266;1250;108748;-83
2023/10/03 03:05:09;;;;;;;11.80;6.80;;;;;;;14.85;86.44;100406.48;131471;1253;107532;-83
2023/10/03 03:08:25;;;;;;;12.30;6.90;;;;;;;14.84;86.35;100405.13;131347;1253;108696;-83
2023/10/03 03:11:32;;;;;;;12.20;7.30;;;;;;;14.81;86.48;100402.29;131345;1255;106558;-83
2023/10/03 03:14:38;;;;;;;10.70;6.60;;;;;;;14.76;86.60;100402.32;131331;1251;108559;-84
2023/10/03 03:17:44;;;;;;;11.00;6.70;;;;;;;14.71;86.73;100397.81;131439;1253;106416;-83
2023/10/03 03:20:57;;;;;;;9.70;6.50;;;;;;;14.69;86.58;100389.52;131303;1250;106420;-83
2023/10/03 03:24:08;;;;;;;9.50;6.50;;;;;;;14.67;86.75;100385.04;131286;1253;107874;-83
2023/10/03 03:27:16;;;;;;;10.10;7.10;;;;;;;14.67;86.82;100384.88;131393;1250;107801;-82
2023/10/03 03:30:34;;;;;;;10.00;7.10;;;;;;;14.65;86.82;100378.91;131293;1253;107983;-82
2023/10/03 03:33:40;;;;;;;9.10;6.50;;;;;;;14.60;86.83;100376.13;131254;1253;108820;-82
2023/10/03 03:36:46;;;;;;;11.50;7.00;;;;;;;14.54;86.80;100370.27;131341;1253;107631;-82
2023/10/03 03:39:57;;;;;;;10.70;7.00;;;;;;;14.51;87.05;100365.80;131360;1253;107868;-82
2023/10/03 03:43:05;;;;;;;10.90;7.60;;;;;;;14.50;87.07;100362.44;131384;1251;107154;-82
2023/10/03 03:46:12;;;;;;;12.00;7.30;;;;;;;14.49;87.12;100359.73;131359;1253;106949;-82
2023/10/03 03:49:19;;;;;;;11.80;7.00;;;;;;;14.46;87.27;100359.73;131345;1251;107449;-82
2023/10/03 03:52:25;;;;;;;9.10;6.50;;;;;;;14.44;87.30;100352.79;131431;1253;106465;-82
2023/10/03 03:55:31;;;;;;;10.90;6.80;;;;;;;14.44;87.48;100350.30;131518;1253;107024;-82
2023/10/03 03:58:40;;;;;;;12.80;6.90;;;;;;;14.43;87.60;100347.48;131344;1253;107535;-82
2023/10/03 04:01:46;;;;;;;11.00;7.20;;;;;;;14.43;87.24;100343.99;131403;1253;106620;-82
2023/10/03 04:04:51;;;;;;;10.40;7.60;;;;;;;14.40;87.60;100341.26;131301;1253;107806;-82
2023/10/03 04:07:58;;;;;;;11.00;7.30;;;;;;;14.36;87.31;100336.70;131343;1253;107834;-82
2023/10/03 04:11:05;;;;;;;9.20;6.80;;;;;;;14.32;87.67;100332.11;131378;1250;107685;-82
2023/10/03 04:14:11;;;;;;;9.80;7.30;;;;;;;14.29;87.75;100327.29;131424;1251;108729;-82
2023/10/03 04:17:18;;;;;;;9.90;6.70;;;;;;;14.27;87.74;100324.77;131322;1250;108012;-82
2023/10/03 04:20:30;;;;;;;10.30;7.30;;;;;;;14.27;87.67;100320.06;131364;1253;106665;-82
2023/10/03 04:23:36;;;;;;;13.80;7.10;;;;;;;14.25;87.86;100317.09;131365;1264;107778;-82
2023/10/03 04:26:42;;;;;;;11.10;7.20;;;;;;;14.23;88.02;100315.52;131389;1251;106123;-82
2023/10/03 04:29:48;;;;;;;9.70;7.00;;;;;;;14.21;87.95;100317.60;131338;1253;107891;-82
2023/10/03 04:32:54;;;;;;;11.40;7.30;;;;;;;14.21;88.06;100315.86;131544;1251;106461;-82
2023/10/03 04:36:04;;;;;;;11.90;7.50;;;;;;;14.22;88.12;100308.21;131560;1251;106449;-82
2023/10/03 04:39:11;;;;;;;11.00;8.00;;;;;;;14.21;87.96;100310.69;131662;1253;107835;-82
2023/10/03 04:42:17;;;;;;;11.80;7.70;;;;;;;14.18;88.02;100308.23;131598;1251;107079;-82
2023/10/03 04:45:25;;;;;;;9.20;6.90;;;;;;;14.15;88.17;100306.20;131564;1250;106912;-82
2023/10/03 04:48:31;;;;;;;11.30;7.40;;;;;;;14.12;88.38;100306.16;131662;1253;107631;-82
2023/10/03 04:51:37;;;;;;;12.00;7.90;;;;;;;14.13;88.25;100302.79;131335;1253;106537;-82
2023/10/03 04:54:42;;;;;;;15.20;7.70;;;;;;;14.14;88.40;100303.79;131388;1253;107714;-82
2023/10/03 04:57:50;;;;;;;11.10;7.40;;;;;;;14.13;88.37;100295.08;131318;1253;107686;-82
2023/10/03 05:00:55;;;;;;;8.90;6.70;;;;;;;14.13;88.37;100291.35;131474;1253;107729;-82
2023/10/03 05:04:01;;;;;;;10.70;7.10;;;;;;;14.12;88.20;100286.04;131396;1249;107161;-81
2023/10/03 05:07:10;;;;;;;11.10;7.70;;;;;;;14.15;88.48;100284.39;131379;1253;107656;-82
2023/10/03 05:10:17;;;;;;;11.80;7.30;;;;;;;14.17;88.43;100282.30;131371;1253;107562;-82
2023/10/03 05:13:23;;;;;;;13.10;7.60;;;;;;;14.20;88.53;100283.23;131339;1253;106492;-82
2023/10/03 05:16:29;;;;;;;10.20;7.10;;;;;;;14.21;88.59;100280.64;131299;1251;108615;-81
2023/10/03 05:19:36;;;;;;;10.90;7.60;;;;;;;14.24;88.42;100287.09;131397;1253;108611;-82
2023/10/03 05:22:42;;;;;;;11.40;7.70;;;;;;;14.29;88.52;100288.14;131316;1253;106203;-83
2023/10/03 05:25:48;;;;;;;11.00;7.70;;;;;;;14.32;88.61;100287.75;131352;1253;106604;-79
2023/10/03 05:28:55;;;;;;;11.70;7.50;;;;;;;14.35;88.40;100289.04;131247;1251;107088;-79
2023/10/03 05:32:01;;;;;;;11.40;7.20;;;;;;;14.34;88.64;100286.77;133974;1250;107396;-79
2023/10/03 05:35:08;;;;;;;12.40;7.30;;;;;;;14.36;88.82;100286.59;131230;1263;108974;-78
2023/10/03 05:38:14;;;;;;;12.20;7.00;;;;;;;14.41;88.53;100282.67;131613;1250;107219;-78
2023/10/03 05:41:23;;;;;;;11.30;7.80;;;;;;;14.46;88.61;100278.23;135360;1250;106638;-79
2023/10/03 05:44:29;;;;;;;11.60;7.10;;;;;;;14.53;88.47;100281.82;133597;1253;107519;-78
2023/10/03 05:47:36;;;;;;;10.90;7.30;;;;;;;14.58;88.57;100277.84;131045;1253;107838;-78
2023/10/03 05:50:42;;;;;;;10.50;7.20;;;;;;;14.63;88.55;100274.73;131012;1251;107403;-78
2023/10/03 05:53:47;;;;;;;8.90;6.50;;;;;;;14.70;88.50;100272.33;131061;1263;107841;-79
2023/10/03 05:56:55;;;;;;;11.30;7.60;;;;;;;14.78;88.57;100271.23;131040;1251;108714;-78
2023/10/03 06:00:01;;;;;;;10.40;7.20;;;;;;;14.85;88.39;100269.70;130988;1253;107120;-78
2023/10/03 06:03:09;;;;;;;11.60;7.90;;;;;;;14.92;88.55;100263.28;131069;1253;108689;-78
2023/10/03 06:06:15;;;;;;;12.70;7.60;;;;;;;14.97;88.47;100256.99;131028;1253;107027;-79
2023/10/03 06:09:23;;;;;;;12.00;7.20;;;;;;;15.00;88.52;100258.55;131051;1253;108460;-78
2023/10/03 06:12:29;;;;;;;9.90;7.10;;;;;;;15.06;88.65;100258.42;130980;1251;108498;-81
2023/10/03 06:15:36;;;;;;;13.10;7.40;;;;;;;15.13;88.74;100260.60;130981;1251;106884;-79
2023/10/03 06:18:42;;;;;;;11.80;8.30;;;;;;;15.21;88.38;100260.73;131181;1253;107907;-81
2023/10/03 06:21:47;;;;;;;11.50;7.10;;;;;;;15.27;88.17;100254.29;131041;1253;107921;-79
2023/10/03 06:24:57;;;;;;;10.60;7.30;;;;;;;15.31;88.29;100252.89;130925;1254;106535;-79
2023/10/03 06:28:03;;;;;;;10.80;7.00;;;;;;;15.39;88.42;100252.39;131173;1250;107056;-80
2023/10/03 06:31:10;;;;;;;12.60;6.70;;;;;;;15.47;88.41;100252.92;131145;1253;108829;-80
2023/10/03 06:34:16;;;;;;;11.20;7.00;;;;;;;15.55;88.19;100251.80;131226;1251;106389;-80
2023/10/03 06:37:23;;;;;;;12.40;7.20;;;;;;;15.62;88.05;100244.33;131181;1253;107132;-80
2023/10/03 06:40:29;;;;;;;9.90;6.60;;;;;;;15.67;88.02;100241.95;131113;1253;106484;-80
2023/10/03 06:43:35;;;;;;;11.70;7.20;;;;;;;15.71;88.01;100237.36;131311;1256;107721;-80
2023/10/03 06:46:42;;;;;;;9.50;6.70;;;;;;;15.78;87.87;100234.08;131138;1253;107363;-80
2023/10/03 06:49:49;;;;;;;10.40;6.70;;;;;;;15.86;87.90;100231.09;131199;1253;107121;-80
2023/10/03 06:52:55;;;;;;;12.20;6.50;;;;;;;15.96;87.69;100233.64;131146;1253;108512;-82
2023/10/03 06:56:01;;;;;;;10.60;6.50;;;;;;;16.03;87.55;100232.73;131198;1253;107101;-81
2023/10/03 06:59:10;;;;;;;9.50;6.40;;;;;;;16.10;87.47;100227.96;131096;1256;107237;-81
2023/10/03 07:02:18;;;;;;;11.30;6.30;;;;;;;16.16;87.55;100217.05;131140;1251;108617;-77
2023/10/03 07:05:23;;;;;;;10.00;6.20;;;;;;;16.23;87.34;100219.20;131094;1254;108507;-78
2023/10/03 07:08:29;;;;;;;10.10;7.10;;;;;;;16.32;87.33;100217.82;131021;1253;106704;-76
2023/10/03 07:11:34;;;;;;;9.60;6.40;;;;;;;16.42;87.12;100222.46;131073;1263;107212;-76
2023/10/03 07:14:41;;;;;;;10.90;6.70;;;;;;;16.50;86.81;100219.15;130991;1251;108440;-77
2023/10/03 07:17:47;;;;;;;10.20;6.50;;;;;;;16.56;86.79;100220.23;131033;1251;106339;-76
2023/10/03 07:20:55;;;;;;;10.60;6.50;;;;;;;16.64;86.85;100222.59;131079;1256;105981;-77
2023/10/03 07:24:01;;;;;;;10.10;6.70;;;;;;;16.75;86.79;100216.98;131033;1253;106707;-76
2023/10/03 07:27:11;;;;;;;11.80;6.60;;;;;;;16.85;86.59;100214.04;131066;1254;107058;-77
2023/10/03 07:30:18;;;;;;;9.10;6.30;;;;;;;16.98;86.46;100210.96;131167;1253;107833;-78
2023/10/03 07:33:24;;;;;;;9.40;6.30;;;;;;;17.07;86.16;100206.29;131093;1253;106720;-78
2023/10/03 07:36:30;;;;;;;10.90;6.10;;;;;;;17.15;86.17;100206.17;131040;1253;107395;-78
2023/10/03 07:39:35;;;;;;;10.50;5.90;;;;;;;17.23;85.78;100209.09;131042;1253;106551;-78
2023/10/03 07:42:43;;;;;;;9.90;6.30;;;;;;;17.32;85.72;100202.54;131194;1253;107656;-77
2023/10/03 07:45:50;;;;;;;9.60;6.40;;;;;;;17.42;85.56;100195.63;131156;1253;106946;-77
2023/10/03 07:48:56;;;;;;;10.20;6.40;;;;;;;17.54;85.38;100192.38;131233;1250;107706;-78
2023/10/03 07:52:04;;;;;;;8.00;6.00;;;;;;;17.63;85.13;100191.59;131336;1251;106606;-78
2023/10/03 07:55:11;;;;;;;9.60;5.80;;;;;;;17.72;84.93;100189.13;131853;1250;108492;-76
2023/10/03 07:58:20;;;;;;;9.50;6.00;;;;;;;17.78;84.87;100188.11;132842;1253;108471;-77
2023/10/03 08:01:26;;;;;;;9.50;5.50;;;;;;;17.85;84.67;100189.70;131054;1253;108364;-77
2023/10/03 08:04:32;;;;;;;10.70;6.10;;;;;;;17.94;84.30;100190.98;131227;1254;107218;-76
2023/10/03 08:07:38;;;;;;;10.70;6.50;;;;;;;18.07;84.13;100187.95;131111;1263;106624;-76
2023/10/03 08:10:48;;;;;;;9.40;6.00;;;;;;;18.18;83.99;100183.20;130998;1264;107660;-76
2023/10/03 08:13:54;;;;;;;8.60;6.00;;;;;;;18.28;83.52;100184.55;131048;1253;106737;-77
2023/10/03 08:17:00;;;;;;;9.60;6.20;;;;;;;18.36;83.23;100179.36;131093;1251;107085;-76
2023/10/03 08:20:09;;;;;;;13.30;6.00;;;;;;;18.42;83.25;100176.13;131273;1253;108812;-77
2023/10/03 08:23:18;;;;;;;9.00;5.50;;;;;;;18.49;82.90;100170.56;131187;1253;106514;-77
2023/10/03 08:26:25;;;;;;;9.80;5.80;;;;;;;18.55;82.81;100166.54;131258;1253;107688;-76
2023/10/03 08:29:32;;;;;;;8.30;5.20;;;;;;;18.65;82.95;100164.52;131248;1263;107133;-76
2023/10/03 08:32:39;;;;;;;10.40;5.30;;;;;;;18.77;82.70;100157.80;131222;1253;107056;-76
2023/10/03 08:35:46;;;;;;;11.20;6.40;;;;;;;18.88;82.63;100153.24;131293;1253;108491;-76
2023/10/03 08:38:52;;;;;;;8.90;5.80;;;;;;;19.00;82.23;100148.94;131173;1253;108066;-76
2023/10/03 08:42:12;;;;;;;10.00;5.70;;;;;;;19.09;82.09;100137.94;131103;1251;107759;-77
2023/10/03 08:45:22;;;;;;;10.70;6.10;;;;;;;19.18;81.53;100132.52;131183;1261;108430;-76
2023/10/03 08:48:35;;;;;;;12.80;5.90;;;;;;;19.26;81.62;100125.69;131287;1254;106944;-76
2023/10/03 08:51:40;;;;;;;9.30;5.30;;;;;;;19.30;81.16;100121.52;131198;1263;107252;-76
2023/10/03 08:54:46;;;;;;;8.40;5.70;;;;;;;19.36;80.81;100115.63;131222;1254;107146;-76
2023/10/03 08:57:52;;;;;;;9.80;5.80;;;;;;;19.43;80.35;100113.02;131302;1253;107741;-76
2023/10/03 09:01:02;;;;;;;11.50;5.80;;;;;;;19.52;80.29;100106.52;131184;1253;108884;-76
2023/10/03 09:04:15;;;;;;;11.10;5.70;;;;;;;19.60;80.35;100104.97;131293;1263;107741;-76
2023/10/03 09:07:23;;;;;;;8.30;5.30;;;;;;;19.67;79.81;100099.23;131279;1253;107719;-76
2023/10/03 09:10:31;;;;;;;9.00;6.10;;;;;;;19.73;79.65;100090.23;131164;1253;108672;-77
2023/10/03 09:13:36;;;;;;;9.50;5.40;;;;;;;19.81;79.66;100086.89;131272;1254;106573;-77
2023/10/03 09:16:42;;;;;;;10.30;5.50;;;;;;;19.87;79.20;100078.90;131186;1254;107447;-76
2023/10/03 09:19:50;;;;;;;11.40;5.50;;;;;;;19.93;79.53;100079.61;131272;1263;106575;-76
2023/10/03 09:23:05;;;;;;;9.40;5.30;;;;;;;20.01;79.17;100075.64;131242;1253;107799;-77
2023/10/03 09:26:11;;;;;;;12.80;5.50;;;;;;;20.13;78.79;100072.35;131170;1253;107144;-76
2023/10/03 09:29:29;;;;;;;8.40;5.70;;;;;;;20.25;78.76;100069.30;131280;1259;107911;-77
2023/10/03 09:32:39;;;;;;;10.30;5.80;;;;;;;20.35;77.83;100066.58;131224;1254;107910;-76
2023/10/03 09:36:00;;;;;;;9.90;6.10;;;;;;;20.43;77.38;100065.34;131261;1253;107675;-76
2023/10/03 09:39:20;;;;;;;13.30;6.00;;;;;;;20.50;77.51;100055.94;131278;1253;107736;-77
2023/10/03 09:42:26;;;;;;;11.10;6.70;;;;;;;20.58;77.05;100055.20;131164;1263;107652;-77
2023/10/03 09:45:33;;;;;;;10.10;5.90;;;;;;;20.64;77.16;100053.95;131232;1254;106714;-77
2023/10/03 09:48:39;;;;;;;11.50;6.40;;;;;;;20.71;76.43;100051.23;131227;1254;108029;-76
2023/10/03 09:51:51;;;;;;;11.20;5.60;;;;;;;20.77;76.49;100047.73;131181;1263;107866;-76
2023/10/03 09:54:59;;;;;;;10.70;5.70;;;;;;;20.83;75.89;100049.91;131227;1263;107135;-76
2023/10/03 09:58:05;;;;;;;10.10;5.60;;;;;;;20.88;75.96;100046.86;131033;1262;107949;-77
2023/10/03 10:01:11;;;;;;;10.90;6.20;;;;;;;20.95;75.45;100050.32;131151;1253;107680;-76
2023/10/03 10:04:20;;;;;;;9.60;5.50;;;;;;;21.02;75.12;100043.30;131315;1251;107654;-77
2023/10/03 10:07:34;;;;;;;9.50;6.10;;;;;;;21.07;74.88;100036.40;131228;1253;106879;-77
2023/10/03 10:10:41;;;;;;;9.60;6.00;;;;;;;21.13;74.93;100038.26;131276;1263;106693;-77
2023/10/03 10:14:09;;;;;;;9.80;5.60;;;;;;;21.18;74.89;100031.34;131228;1253;107673;-76
2023/10/03 10:17:19;;;;;;;10.40;5.90;;;;;;;21.25;74.55;100026.73;131256;1254;106949;-76
2023/10/03 10:20:37;;;;;;;8.00;5.90;;;;;;;21.33;74.28;100019.41;131215;1263;107296;-77
2023/10/03 10:24:24;;;;;;;10.10;5.50;;;;;;;21.41;73.89;100017.13;131253;1254;108560;-76
2023/10/03 10:27:31;;;;;;;9.80;5.30;;;;;;;21.51;73.38;100013.16;131207;1254;107544;-77
2023/10/03 10:30:39;;;;;;;8.00;5.30;;;;;;;21.60;73.46;100005.79;131256;1263;106801;-77
2023/10/03 10:33:46;;;;;;;8.70;5.30;;;;;;;21.69;73.13;100000.50;131285;1254;108248;-77
2023/10/03 10:37:03;;;;;;;9.20;5.60;;;;;;;21.77;72.32;99995.66;131330;1254;108673;-77
2023/10/03 10:40:21;;;;;;;9.60;5.50;;;;;;;21.87;72.02;99989.40;131198;1263;107852;-77
2023/10/03 10:43:27;;;;;;;8.10;5.30;;;;;;;22.00;71.57;99988.19;131254;1254;107625;-77
2023/10/03 10:46:39;;;;;;;8.00;5.30;;;;;;;22.10;71.43;99979.41;131237;1257;106110;-76
2023/10/03 10:50:01;;;;;;;10.00;4.90;;;;;;;22.21;71.36;99976.30;131343;1253;107764;-76
2023/10/03 10:53:06;;;;;;;8.30;5.00;;;;;;;22.30;71.46;99971.16;131219;1254;108731;-77
2023/10/03 10:56:13;;;;;;;8.00;5.50;;;;;;;22.35;71.03;99968.98;131169;1251;108685;-76
2023/10/03 10:59:21;;;;;;;7.30;4.90;;;;;;;22.45;70.47;99965.29;131229;1249;107346;-77
2023/10/03 11:02:27;;;;;;;8.80;4.60;;;;;;;22.59;69.73;99962.42;131414;1253;107720;-77
2023/10/03 11:05:44;;;;;;;8.70;4.90;;;;;;;22.73;69.15;99958.42;131200;1260;107552;-77
2023/10/03 11:08:51;;;;;;;7.30;4.70;;;;;;;22.87;68.47;99955.39;131357;1254;106753;-76
2023/10/03 11:11:57;;;;;;;7.50;4.50;;;;;;;23.00;68.56;99947.44;131174;1254;107701;-78
2023/10/03 11:15:05;;;;;;;8.10;4.60;;;;;;;23.13;68.30;99945.84;131198;1262;106995;-77
2023/10/03 11:18:10;;;;;;;7.40;4.70;;;;;;;23.16;67.84;99938.88;131162;1254;107790;-76
2023/10/03 11:21:16;;;;;;;7.10;4.70;;;;;;;23.20;67.89;99935.04;131245;1251;106720;-77
2023/10/03 11:24:24;;;;;;;8.50;5.10;;;;;;;23.29;67.62;99930.31;131257;1263;107638;-77
2023/10/03 11:27:30;;;;;;;8.90;4.80;;;;;;;23.42;67.50;99923.89;131247;1253;107923;-76
2023/10/03 11:30:36;;;;;;;7.80;5.00;;;;;;;23.55;67.27;99918.61;131167;1263;107922;-77
2023/10/03 11:33:46;;;;;;;8.00;5.00;;;;;;;23.69;67.03;99908.14;131308;1263;108556;-77
2023/10/03 11:36:52;;;;;;;8.90;5.10;;;;;;;23.79;65.98;99903.36;131073;1257;107810;-77
2023/10/03 11:40:07;;;;;;;9.40;5.10;;;;;;;23.80;66.35;99895.45;131187;1254;107750;-77
2023/10/03 11:43:14;;;;;;;8.20;4.90;;;;;;;23.83;66.49;99889.60;131227;1251;107032;-77
2023/10/03 11:46:20;;;;;;;8.20;5.10;;;;;;;23.85;66.67;99884.51;131261;1251;106349;-77
2023/10/03 11:49:30;;;;;;;6.00;4.50;;;;;;;23.87;66.29;99875.93;131401;1251;106770;-77
2023/10/03 11:52:37;;;;;;;9.40;4.90;;;;;;;23.97;66.37;99871.16;131227;1253;106717;-77
2023/10/03 11:55:44;;;;;;;7.90;5.20;;;;;;;24.05;65.61;99862.98;131178;1263;107742;-77
2023/10/03 11:58:50;;;;;;;7.00;4.70;;;;;;;24.12;65.43;99856.21;131263;1263;108634;-77
2023/10/03 12:01:59;;;;;;;7.00;4.90;;;;;;;24.15;64.87;99851.88;131172;1254;107659;-77
2023/10/03 12:05:06;;;;;;;10.00;4.90;;;;;;;24.17;64.53;99852.08;131227;1251;107853;-77
2023/10/03 12:08:13;;;;;;;9.00;5.10;;;;;;;24.19;64.50;99848.08;131280;1255;106911;-77
2023/10/03 12:11:20;;;;;;;8.70;4.80;;;;;;;24.20;64.26;99839.35;131216;1251;107676;-77
2023/10/03 12:14:25;;;;;;;11.00;4.60;;;;;;;24.22;63.96;99836.81;130952;1255;107020;-77
2023/10/03 12:17:31;;;;;;;8.60;4.60;;;;;;;24.22;63.95;99837.08;131277;1252;105981;-77
2023/10/03 12:20:38;;;;;;;7.10;4.50;;;;;;;24.21;63.16;99838.33;131200;1254;107950;-77
2023/10/03 12:23:45;;;;;;;10.20;5.00;;;;;;;24.23;62.70;99836.94;131164;1261;106539;-77
2023/10/03 12:26:52;;;;;;;8.00;4.60;;;;;;;24.26;61.90;99826.67;131220;1253;107522;-77
2023/10/03 12:30:00;;;;;;;10.40;4.80;;;;;;;24.31;61.68;99833.17;131087;1254;107001;-77
2023/10/03 12:33:11;;;;;;;9.70;5.10;;;;;;;24.34;61.46;99825.26;131225;1254;107608;-77
2023/10/03 12:36:16;;;;;;;8.30;4.90;;;;;;;24.35;61.06;99816.42;131222;1254;107725;-77
2023/10/03 12:39:24;;;;;;;9.10;5.00;;;;;;;24.39;60.77;99808.83;131266;1254;107732;-77
2023/10/03 12:42:30;;;;;;;10.10;5.60;;;;;;;24.45;60.74;99799.02;131200;1251;107775;-77
2023/10/03 12:45:36;;;;;;;10.70;5.10;;;;;;;24.50;60.50;99795.89;131169;1251;106814;-77
2023/10/03 12:48:42;;;;;;;8.60;4.90;;;;;;;24.53;60.32;99790.52;130994;1254;270713;-77
2023/10/03 12:51:48;;;;;;;9.20;5.00;;;;;;;24.53;59.25;99786.70;131271;1263;107106;-77
2023/10/03 12:54:54;;;;;;;7.80;5.00;;;;;;;24.55;59.44;99782.20;131164;1253;107883;-77
2023/10/03 12:57:59;;;;;;;7.20;5.30;;;;;;;24.58;59.72;99778.90;131297;1253;107191;-77
2023/10/03 13:01:06;;;;;;;9.20;5.00;;;;;;;24.63;59.31;99767.33;131198;1254;107670;-77
2023/10/03 13:04:11;;;;;;;8.90;5.30;;;;;;;24.66;59.28;99762.89;131332;1257;107421;-77
2023/10/03 13:07:20;;;;;;;9.30;5.00;;;;;;;24.69;58.51;99756.31;131245;1253;106704;-77
2023/10/03 13:10:27;;;;;;;;;;;;;;;24.74;58.34;99754.45;131248;1251;108261;-77
2023/10/03 13:13:34;;;;;;;9.10;4.90;;;;;;;24.77;57.62;99752.45;131132;1255;106002;-77
2023/10/03 13:16:40;;;;;;;8.00;5.50;;;;;;;24.78;57.79;99745.15;131175;1251;107668;-77
2023/10/03 13:19:46;;;;;;;8.90;5.50;;;;;;;24.78;58.20;99739.68;131246;1251;108791;-77
2023/10/03 13:22:52;;;;;;;10.40;5.50;;;;;;;24.75;57.94;99740.21;131179;1254;107726;-77
2023/10/03 13:25:57;;;;;;;9.40;5.10;;;;;;;24.71;57.67;99733.13;131205;1251;108468;-77
2023/10/03 13:29:03;;;;;;;10.80;5.90;;;;;;;24.69;57.85;99731.98;131240;1249;106663;-77
2023/10/03 13:32:09;;;;;;;9.30;5.40;;;;;;;24.66;57.44;99722.02;131188;1254;106838;-78
2023/10/03 13:35:15;;;;;;;9.50;5.30;;;;;;;24.61;57.16;99715.33;131203;1254;106883;-77
2023/10/03 13:38:21;;;;;;;9.60;5.70;;;;;;;24.56;56.91;99713.52;131220;1254;106567;-78
2023/10/03 13:41:28;;;;;;;10.90;5.60;;;;;;;24.47;56.98;99714.39;131104;1254;107393;-79
2023/10/03 13:44:33;;;;;;;11.80;5.50;;;;;;;24.40;57.06;99710.02;131447;1253;107607;-79
2023/10/03 13:47:44;;;;;;;9.20;5.50;;;;;;;24.35;56.72;99711.16;131426;1251;107002;-79
2023/10/03 13:50:51;;;;;;;9.00;5.70;;;;;;;24.33;56.98;99700.19;131163;1254;108025;-79
2023/10/03 13:53:57;;;;;;;10.10;5.60;;;;;;;24.35;57.15;99691.98;131063;1254;109180;-77
2023/10/03 13:57:05;;;;;;;10.60;6.20;;;;;;;24.36;57.10;99685.76;131206;1253;107077;-77
2023/10/03 14:00:13;;;;;;;13.00;5.80;;;;;;;24.36;56.64;99682.05;131699;1250;106546;-78
2023/10/03 14:03:19;;;;;;;8.00;5.30;;;;;;;24.33;56.77;99676.63;131768;1253;108646;-76
2023/10/03 14:06:29;;;;;;;9.90;5.80;;;;;;;24.21;56.66;99670.23;131642;1253;106882;-76
2023/10/03 14:09:36;;;;;;;10.50;5.90;;;;;;;23.96;56.60;99659.14;131968;1253;107113;-76